createdAt,value
2023-04-21T00:00:10.093Z,86.54
2023-04-21T00:00:41.599Z,87.23
2023-04-21T00:01:13.123Z,86.64
2023-04-21T00:01:44.535Z,87.02
2023-04-21T00:02:17.305Z,86.98
2023-04-21T00:02:49.890Z,86.59
2023-04-21T00:03:24.150Z,87.29
2023-04-21T00:03:56.323Z,87.52
2023-04-21T00:04:28.892Z,86.74
2023-04-21T00:05:00.764Z,86.92
2023-04-21T00:05:33.583Z,87.27
2023-04-21T00:06:09.779Z,87.14
2023-04-21T00:06:41.643Z,87.50
2023-04-21T00:07:14.683Z,87.51
2023-04-21T00:07:46.121Z,87.85
2023-04-21T00:08:18.872Z,87.33
2023-04-21T00:08:50.705Z,87.89
2023-04-21T00:09:23.042Z,88.31
2023-04-21T00:09:54.428Z,87.89
2023-04-21T00:10:25.839Z,88.10
2023-04-21T00:10:57.266Z,87.47
2023-04-21T00:11:28.709Z,87.59
2023-04-21T00:12:00.356Z,88.24
2023-04-21T00:12:31.816Z,88.44
2023-04-21T00:13:03.334Z,88.77
2023-04-21T00:13:36.505Z,88.81
2023-04-21T00:14:08.016Z,88.83
2023-04-21T00:14:40.119Z,89.10
2023-04-21T00:15:12.643Z,88.94
2023-04-21T00:15:44.290Z,89.26
2023-04-21T00:16:15.723Z,89.31
2023-04-21T00:16:47.510Z,88.47
2023-04-21T00:17:19.073Z,88.36
2023-04-21T00:17:50.649Z,88.30
2023-04-21T00:18:22.962Z,88.65
2023-04-21T00:18:54.366Z,88.19
2023-04-21T00:19:26.334Z,88.53
2023-04-21T00:19:58.473Z,88.46
2023-04-21T00:20:31.122Z,88.53
2023-04-21T00:21:02.647Z,89.22
2023-04-21T00:21:34.938Z,88.80
2023-04-21T00:22:11.952Z,89.56
2023-04-21T00:22:43.635Z,89.05
2023-04-21T00:23:15.114Z,89.17
2023-04-21T00:23:47.414Z,89.80
2023-04-21T00:24:18.862Z,89.67
2023-04-21T00:24:50.282Z,90.04
2023-04-21T00:26:11.445Z,90.05
2023-04-21T00:26:42.806Z,90.49
2023-04-21T00:27:15.536Z,90.96
2023-04-21T00:27:46.936Z,90.60
2023-04-21T00:28:18.732Z,90.51
2023-04-21T00:28:50.186Z,91.49
2023-04-21T00:29:21.996Z,91.55
2023-04-21T00:29:53.490Z,92.08
2023-04-21T00:30:25.024Z,91.64
2023-04-21T00:30:57.075Z,91.28
2023-04-21T00:31:28.688Z,91.30
2023-04-21T00:32:01.928Z,91.84
2023-04-21T00:32:33.657Z,91.40
2023-04-21T00:33:05.169Z,91.96
2023-04-21T00:33:36.606Z,91.79
2023-04-21T00:34:08.026Z,92.73
2023-04-21T00:34:39.442Z,92.26
2023-04-21T00:35:11.228Z,92.54
2023-04-21T00:35:42.640Z,92.79
2023-04-21T00:36:14.007Z,92.72
2023-04-21T00:36:45.723Z,93.10
2023-04-21T00:37:17.066Z,92.67
2023-04-21T00:37:50.149Z,92.70
2023-04-21T00:38:21.605Z,92.57
2023-04-21T00:38:53.005Z,92.87
2023-04-21T00:39:24.447Z,92.75
2023-04-21T00:39:55.883Z,93.03
2023-04-21T00:40:27.468Z,93.80
2023-04-21T00:40:58.925Z,93.76
2023-04-21T00:41:30.936Z,93.80
2023-04-21T00:42:02.428Z,94.03
2023-04-21T00:42:33.925Z,93.68
2023-04-21T00:43:08.293Z,94.40
2023-04-21T00:44:00.934Z,94.14
2023-04-21T00:44:51.143Z,94.00
2023-04-21T00:45:22.646Z,93.80
2023-04-21T00:45:54.071Z,93.90
2023-04-21T00:46:25.658Z,93.96
2023-04-21T00:46:57.301Z,93.97
2023-04-21T00:47:28.713Z,93.94
2023-04-21T00:48:00.384Z,94.00
2023-04-21T00:48:31.791Z,94.53
2023-04-21T00:49:06.002Z,94.05
2023-04-21T00:49:37.484Z,94.47
2023-04-21T00:50:10.321Z,94.12
2023-04-21T00:50:42.252Z,93.99
2023-04-21T00:51:13.589Z,94.38
2023-04-21T00:51:45.831Z,94.17
2023-04-21T00:52:18.281Z,94.12
2023-04-21T00:52:49.874Z,94.18
2023-04-21T00:53:22.263Z,93.56
2023-04-21T00:53:55.293Z,93.99
2023-04-21T00:54:27.553Z,93.95
2023-04-21T00:55:00.329Z,93.65
2023-04-21T00:55:31.768Z,94.29
2023-04-21T00:56:03.554Z,94.27
2023-04-21T00:56:36.178Z,95.55
2023-04-21T00:57:08.016Z,95.14
2023-04-21T00:57:39.636Z,95.06
2023-04-21T00:58:11.610Z,95.20
2023-04-21T00:58:45.371Z,95.28
2023-04-21T00:59:17.355Z,94.68
2023-04-21T00:59:49.841Z,94.79
2023-04-21T01:00:21.428Z,94.93
2023-04-21T01:00:52.833Z,94.69
2023-04-21T01:01:24.762Z,94.83
2023-04-21T01:01:56.418Z,94.93
2023-04-21T01:02:28.542Z,94.33
2023-04-21T01:03:01.370Z,94.82
2023-04-21T01:03:33.134Z,94.23
2023-04-21T01:04:05.360Z,94.87
2023-04-21T01:04:39.874Z,95.50
2023-04-21T01:05:12.136Z,95.34
2023-04-21T01:05:43.572Z,95.71
2023-04-21T01:06:15.198Z,95.76
2023-04-21T01:06:47.379Z,95.69
2023-04-21T01:07:18.904Z,95.07
2023-04-21T01:07:50.456Z,95.47
2023-04-21T01:08:22.210Z,95.73
2023-04-21T01:08:54.599Z,95.34
2023-04-21T01:09:26.926Z,95.63
2023-04-21T01:09:59.698Z,95.42
2023-04-21T01:10:31.159Z,95.23
2023-04-21T01:11:10.760Z,95.50
2023-04-21T01:11:42.161Z,95.10
2023-04-21T01:12:13.820Z,95.23
2023-04-21T01:12:46.217Z,95.69
2023-04-21T01:13:21.993Z,96.45
2023-04-21T01:13:54.525Z,96.65
2023-04-21T01:14:26.090Z,96.52
2023-04-21T01:14:57.560Z,96.11
2023-04-21T01:15:31.128Z,96.28
2023-04-21T01:16:02.700Z,96.39
2023-04-21T01:16:34.626Z,96.38
2023-04-21T01:17:07.701Z,95.93
2023-04-21T01:17:40.320Z,96.18
2023-04-21T01:18:11.792Z,96.52
2023-04-21T01:18:44.609Z,96.08
2023-04-21T01:19:16.909Z,97.02
2023-04-21T01:19:49.116Z,96.86
2023-04-21T01:20:20.831Z,96.60
2023-04-21T01:20:52.427Z,97.01
2023-04-21T01:21:23.905Z,96.41
2023-04-21T01:21:58.470Z,95.98
2023-04-21T01:22:31.820Z,95.59
2023-04-21T01:23:03.432Z,95.46
2023-04-21T01:23:34.850Z,95.67
2023-04-21T01:24:07.036Z,95.54
2023-04-21T01:24:40.673Z,95.92
2023-04-21T01:25:12.130Z,95.95
2023-04-21T01:25:43.474Z,95.94
2023-04-21T01:26:18.371Z,95.90
2023-04-21T01:26:49.907Z,96.25
2023-04-21T01:27:21.503Z,96.14
2023-04-21T01:27:53.026Z,95.48
2023-04-21T01:28:26.042Z,95.77
2023-04-21T01:28:57.515Z,94.99
2023-04-21T01:29:33.231Z,95.17
2023-04-21T01:30:06.096Z,95.07
2023-04-21T01:30:37.508Z,95.89
2023-04-21T01:31:08.929Z,96.28
2023-04-21T01:31:40.670Z,96.30
2023-04-21T01:32:24.728Z,96.52
2023-04-21T01:32:58.611Z,95.76
2023-04-21T01:33:30.650Z,96.22
2023-04-21T01:34:05.300Z,96.51
2023-04-21T01:34:36.966Z,96.77
2023-04-21T01:35:08.994Z,96.88
2023-04-21T01:35:40.592Z,96.59
2023-04-21T01:36:12.012Z,96.71
2023-04-21T01:36:43.549Z,96.97
2023-04-21T01:37:17.698Z,96.24
2023-04-21T01:37:49.146Z,96.14
2023-04-21T01:38:20.899Z,96.33
2023-04-21T01:38:52.306Z,95.94
2023-04-21T01:39:23.847Z,96.44
2023-04-21T01:39:58.556Z,96.67
2023-04-21T01:40:30.006Z,96.17
2023-04-21T01:41:01.427Z,96.56
2023-04-21T01:41:32.847Z,97.08
2023-04-21T01:42:04.259Z,97.93
2023-04-21T01:42:38.609Z,97.78
2023-04-21T01:43:10.308Z,97.69
2023-04-21T01:43:41.911Z,97.42
2023-04-21T01:44:13.359Z,97.56
2023-04-21T01:44:47.237Z,97.43
2023-04-21T01:45:18.698Z,96.75
2023-04-21T01:45:50.169Z,96.93
2023-04-21T01:46:22.134Z,96.95
2023-04-21T01:46:53.589Z,97.09
2023-04-21T01:47:25.533Z,97.17
2023-04-21T01:47:57.165Z,97.51
2023-04-21T01:48:28.629Z,97.49
2023-04-21T01:49:00.131Z,97.19
2023-04-21T01:49:31.576Z,97.38
2023-04-21T01:50:05.569Z,97.68
2023-04-21T01:50:36.928Z,96.90
2023-04-21T01:51:08.282Z,97.32
2023-04-21T01:51:39.623Z,96.83
2023-04-21T01:52:11.333Z,97.04
2023-04-21T01:52:42.995Z,96.78
2023-04-21T01:53:14.449Z,96.47
2023-04-21T01:53:46.061Z,96.67
2023-04-21T01:54:17.544Z,97.38
2023-04-21T01:54:49.300Z,97.07
2023-04-21T01:55:21.045Z,97.36
2023-04-21T01:55:52.766Z,97.62
2023-04-21T01:56:24.196Z,97.05
2023-04-21T01:56:56.306Z,97.47
2023-04-21T01:57:27.766Z,96.77
2023-04-21T01:57:59.506Z,97.48
2023-04-21T01:58:30.924Z,96.87
2023-04-21T01:59:02.449Z,96.64
2023-04-21T01:59:33.866Z,96.63
2023-04-21T02:00:05.944Z,96.67
2023-04-21T02:00:37.421Z,96.60
2023-04-21T02:01:08.948Z,96.54
2023-04-21T02:01:40.423Z,96.73
2023-04-21T02:02:12.019Z,96.61
2023-04-21T02:02:43.730Z,96.85
2023-04-21T02:03:15.628Z,97.12
2023-04-21T02:04:05.711Z,97.35
2023-04-21T02:04:37.429Z,97.08
2023-04-21T02:05:09.185Z,97.27
2023-04-21T02:05:40.658Z,97.77
2023-04-21T02:06:13.982Z,97.50
2023-04-21T02:06:45.923Z,97.80
2023-04-21T02:07:17.305Z,97.78
2023-04-21T02:07:48.662Z,97.29
2023-04-21T02:08:20.072Z,97.46
2023-04-21T02:08:51.428Z,97.69
2023-04-21T02:09:22.760Z,97.15
2023-04-21T02:09:54.309Z,97.29
2023-04-21T02:10:25.735Z,97.27
2023-04-21T02:10:57.154Z,97.25
2023-04-21T02:11:29.275Z,98.20
2023-04-21T02:12:01.858Z,98.12
2023-04-21T02:12:33.271Z,97.67
2023-04-21T02:13:23.332Z,97.46
2023-04-21T02:13:55.771Z,97.55
2023-04-21T02:14:27.391Z,97.29
2023-04-21T02:14:58.814Z,98.23
2023-04-21T02:15:30.482Z,97.93
2023-04-21T02:16:12.728Z,98.48
2023-04-21T02:16:44.610Z,98.48
2023-04-21T02:17:16.890Z,98.11
2023-04-21T02:17:48.389Z,98.09
2023-04-21T02:18:20.110Z,98.07
2023-04-21T02:18:55.141Z,99.24
2023-04-21T02:19:26.558Z,98.74
2023-04-21T02:19:57.968Z,98.26
2023-04-21T02:20:29.436Z,99.11
2023-04-21T02:21:00.858Z,99.00
2023-04-21T02:21:32.604Z,99.11
2023-04-21T02:22:04.179Z,99.06
2023-04-21T02:22:35.525Z,99.24
2023-04-21T02:23:06.943Z,99.49
2023-04-21T02:23:38.332Z,99.35
2023-04-21T02:24:10.036Z,99.44
2023-04-21T02:24:41.641Z,99.73
2023-04-21T02:25:13.127Z,99.59
2023-04-21T02:25:44.533Z,99.50
2023-04-21T02:26:15.969Z,98.96
2023-04-21T02:26:47.777Z,99.48
2023-04-21T02:27:19.170Z,98.97
2023-04-21T02:27:50.535Z,98.26
2023-04-21T02:28:22.308Z,98.21
2023-04-21T02:28:53.688Z,98.02
2023-04-21T02:29:25.239Z,97.67
2023-04-21T02:29:56.676Z,97.96
2023-04-21T02:30:28.380Z,98.02
2023-04-21T02:31:00.029Z,98.02
2023-04-21T02:31:31.632Z,97.91
2023-04-21T02:32:14.406Z,97.90
2023-04-21T02:32:54.504Z,98.17
2023-04-21T02:33:26.113Z,98.86
2023-04-21T02:33:57.662Z,98.84
2023-04-21T02:34:29.129Z,98.89
2023-04-21T02:35:00.603Z,99.35
2023-04-21T02:35:33.904Z,99.08
2023-04-21T02:36:05.795Z,98.50
2023-04-21T02:36:37.167Z,98.55
2023-04-21T02:37:08.633Z,98.57
2023-04-21T02:37:40.637Z,97.78
2023-04-21T02:38:12.086Z,98.21
2023-04-21T02:38:43.726Z,98.18
2023-04-21T02:39:15.398Z,97.94
2023-04-21T02:39:47.071Z,97.97
2023-04-21T02:40:18.578Z,97.46
2023-04-21T02:40:50.652Z,98.14
2023-04-21T02:41:23.393Z,98.26
2023-04-21T02:41:54.755Z,98.93
2023-04-21T02:42:26.097Z,98.71
2023-04-21T02:42:57.450Z,98.43
2023-04-21T02:43:29.192Z,98.08
2023-04-21T02:44:00.607Z,98.20
2023-04-21T02:44:31.966Z,99.30
2023-04-21T02:45:03.860Z,98.94
2023-04-21T02:45:36.999Z,98.78
2023-04-21T02:46:09.129Z,98.86
2023-04-21T02:46:41.624Z,98.88
2023-04-21T02:47:15.383Z,98.59
2023-04-21T02:47:46.727Z,98.65
2023-04-21T02:48:22.965Z,98.33
2023-04-21T02:48:54.581Z,98.79
2023-04-21T02:49:25.973Z,98.84
2023-04-21T02:49:57.349Z,98.82
2023-04-21T02:50:28.756Z,99.14
2023-04-21T02:51:00.145Z,99.14
2023-04-21T02:51:32.505Z,99.15
2023-04-21T02:52:03.929Z,99.23
2023-04-21T02:52:38.462Z,99.59
2023-04-21T02:53:09.848Z,99.32
2023-04-21T02:53:42.167Z,99.60
2023-04-21T02:54:13.534Z,99.85
2023-04-21T02:54:44.940Z,99.87
2023-04-21T02:55:34.987Z,99.57
2023-04-21T02:56:08.739Z,99.42
2023-04-21T02:56:40.329Z,100.00
2023-04-21T02:57:11.803Z,100.00
2023-04-21T02:57:43.165Z,99.80
2023-04-21T02:58:15.094Z,99.81
2023-04-21T02:58:46.507Z,99.94
2023-04-21T02:59:18.580Z,99.61
2023-04-21T02:59:50.322Z,99.79
2023-04-21T03:00:21.757Z,99.29
2023-04-21T03:00:53.345Z,99.18
2023-04-21T03:01:25.015Z,99.03
2023-04-21T03:01:56.552Z,99.34
2023-04-21T03:02:28.073Z,99.68
2023-04-21T03:02:59.568Z,99.26
2023-04-21T03:03:32.304Z,99.19
2023-04-21T03:04:04.050Z,99.41
2023-04-21T03:04:36.293Z,99.28
2023-04-21T03:05:08.773Z,98.84
2023-04-21T03:05:40.253Z,99.60
2023-04-21T03:06:11.744Z,99.59
2023-04-21T03:06:43.127Z,99.73
2023-04-21T03:07:14.553Z,99.60
2023-04-21T03:07:46.318Z,99.23
2023-04-21T03:08:17.701Z,99.90
2023-04-21T03:08:49.095Z,99.48
2023-04-21T03:09:21.082Z,99.69
2023-04-21T03:09:52.523Z,99.83
2023-04-21T03:10:24.204Z,99.64
2023-04-21T03:10:55.766Z,99.54
2023-04-21T03:11:27.379Z,99.63
2023-04-21T03:11:58.776Z,99.94
2023-04-21T03:12:30.155Z,100.00
2023-04-21T03:13:01.707Z,99.87
2023-04-21T03:13:33.115Z,99.50
2023-04-21T03:14:04.498Z,99.56
2023-04-21T03:14:35.981Z,99.37
2023-04-21T03:15:07.840Z,99.59
2023-04-21T03:15:39.289Z,99.33
2023-04-21T03:16:11.446Z,99.78
2023-04-21T03:16:43.070Z,99.13
2023-04-21T03:17:14.530Z,99.20
2023-04-21T03:17:45.998Z,99.13
2023-04-21T03:18:17.718Z,99.21
2023-04-21T03:18:49.178Z,99.26
2023-04-21T03:19:20.758Z,99.36
2023-04-21T03:19:52.425Z,99.62
2023-04-21T03:20:23.907Z,99.62
2023-04-21T03:21:01.465Z,99.60
2023-04-21T03:21:32.834Z,100.00
2023-04-21T03:22:04.256Z,99.73
2023-04-21T03:22:36.193Z,99.85
2023-04-21T03:23:07.856Z,100.00
2023-04-21T03:23:39.247Z,99.93
2023-04-21T03:24:10.673Z,100.00
2023-04-21T03:24:42.210Z,99.70
2023-04-21T03:25:13.874Z,99.25
2023-04-21T03:25:45.530Z,99.53
2023-04-21T03:26:16.993Z,99.92
2023-04-21T03:26:48.384Z,99.87
2023-04-21T03:27:19.731Z,99.51
2023-04-21T03:27:51.295Z,100.00
2023-04-21T03:28:22.731Z,100.00
2023-04-21T03:28:54.372Z,99.77
2023-04-21T03:29:25.791Z,99.45
2023-04-21T03:29:57.243Z,99.94
2023-04-21T03:30:28.639Z,99.78
2023-04-21T03:31:00.023Z,100.00
2023-04-21T03:31:31.618Z,99.85
2023-04-21T03:32:03.702Z,100.00
2023-04-21T03:32:35.217Z,100.00
2023-04-21T03:33:06.697Z,100.00
2023-04-21T03:33:38.162Z,100.00
2023-04-21T03:34:09.988Z,100.00
2023-04-21T03:34:41.499Z,100.00
2023-04-21T03:35:12.973Z,100.00
2023-04-21T03:35:44.333Z,100.00
2023-04-21T03:36:15.896Z,100.00
2023-04-21T03:36:47.315Z,100.00
2023-04-21T03:37:18.721Z,100.00
2023-04-21T03:37:50.161Z,99.98
2023-04-21T03:38:21.551Z,99.71
2023-04-21T03:38:53.169Z,99.51
2023-04-21T03:39:24.764Z,100.00
2023-04-21T03:39:56.370Z,100.00
2023-04-21T03:40:27.756Z,100.00
2023-04-21T03:41:00.058Z,100.00
2023-04-21T03:41:31.473Z,100.00
2023-04-21T03:42:04.865Z,100.00
2023-04-21T03:42:36.770Z,100.00
2023-04-21T03:43:08.128Z,100.00
2023-04-21T03:43:39.598Z,100.00
2023-04-21T03:44:11.003Z,100.00
2023-04-21T03:44:42.466Z,100.00
2023-04-21T03:45:14.026Z,100.00
2023-04-21T03:45:45.496Z,100.00
2023-04-21T03:46:18.500Z,100.00
2023-04-21T03:46:53.207Z,99.85
2023-04-21T03:47:24.696Z,100.00
2023-04-21T03:47:56.895Z,100.00
2023-04-21T03:48:29.218Z,99.31
2023-04-21T03:49:02.578Z,99.49
2023-04-21T03:49:35.331Z,99.73
2023-04-21T03:50:07.338Z,100.00
2023-04-21T03:50:57.446Z,100.00
2023-04-21T03:51:28.814Z,100.00
2023-04-21T03:52:00.234Z,100.00
2023-04-21T03:52:32.727Z,100.00
2023-04-21T03:53:04.213Z,100.00
2023-04-21T03:53:35.664Z,100.00
2023-04-21T03:54:07.064Z,100.00
2023-04-21T03:54:38.500Z,100.00
2023-04-21T03:55:11.588Z,100.00
2023-04-21T03:55:43.431Z,100.00
2023-04-21T03:56:14.863Z,100.00
2023-04-21T03:56:46.296Z,100.00
2023-04-21T03:57:17.747Z,99.65
2023-04-21T03:57:49.115Z,100.00
2023-04-21T03:58:20.565Z,100.00
2023-04-21T03:58:52.831Z,99.38
2023-04-21T03:59:24.338Z,99.61
2023-04-21T03:59:55.930Z,99.40
2023-04-21T04:00:27.302Z,99.55
2023-04-21T04:00:58.787Z,99.53
2023-04-21T04:01:30.551Z,99.65
2023-04-21T04:02:02.168Z,99.88
2023-04-21T04:02:33.782Z,99.97
2023-04-21T04:03:05.319Z,99.92
2023-04-21T04:03:36.921Z,100.00
2023-04-21T04:04:08.837Z,99.88
2023-04-21T04:04:40.566Z,100.00
2023-04-21T04:05:12.387Z,100.00
2023-04-21T04:05:43.927Z,100.00
2023-04-21T04:06:15.402Z,100.00
2023-04-21T04:06:46.820Z,100.00
2023-04-21T04:07:18.616Z,100.00
2023-04-21T04:07:50.051Z,100.00
2023-04-21T04:08:21.695Z,100.00
2023-04-21T04:08:53.392Z,100.00
2023-04-21T04:09:25.551Z,100.00
2023-04-21T04:09:56.959Z,100.00
2023-04-21T04:10:28.354Z,100.00
2023-04-21T04:10:59.758Z,100.00
2023-04-21T04:11:31.759Z,100.00
2023-04-21T04:12:03.459Z,100.00
2023-04-21T04:12:34.901Z,100.00
2023-04-21T04:13:06.385Z,100.00
2023-04-21T04:13:38.013Z,100.00
2023-04-21T04:14:09.456Z,100.00
2023-04-21T04:14:40.847Z,100.00
2023-04-21T04:15:12.301Z,100.00
2023-04-21T04:15:43.855Z,100.00
2023-04-21T04:16:15.481Z,100.00
2023-04-21T04:16:46.913Z,100.00
2023-04-21T04:17:18.382Z,100.00
2023-04-21T04:17:49.805Z,100.00
2023-04-21T04:18:21.486Z,100.00
2023-04-21T04:18:53.022Z,100.00
2023-04-21T04:19:30.598Z,100.00
2023-04-21T04:20:04.483Z,100.00
2023-04-21T04:20:36.537Z,100.00
2023-04-21T04:21:08.224Z,100.00
2023-04-21T04:21:39.684Z,100.00
2023-04-21T04:22:11.101Z,100.00
2023-04-21T04:22:42.683Z,100.00
2023-04-21T04:23:14.054Z,100.00
2023-04-21T04:23:45.716Z,100.00
2023-04-21T04:24:17.177Z,100.00
2023-04-21T04:24:48.666Z,100.00
2023-04-21T04:25:20.313Z,100.00
2023-04-21T04:25:51.829Z,100.00
2023-04-21T04:26:24.789Z,100.00
2023-04-21T04:26:58.263Z,100.00
2023-04-21T04:27:29.940Z,100.00
2023-04-21T04:28:01.358Z,100.00
2023-04-21T04:28:33.637Z,100.00
2023-04-21T04:29:06.363Z,100.00
2023-04-21T04:29:37.719Z,100.00
2023-04-21T04:30:09.433Z,100.00
2023-04-21T04:30:41.104Z,100.00
2023-04-21T04:31:13.651Z,100.00
2023-04-21T04:31:45.416Z,100.00
2023-04-21T04:32:17.557Z,100.00
2023-04-21T04:32:49.036Z,100.00
2023-04-21T04:33:20.553Z,100.00
2023-04-21T04:33:54.959Z,100.00
2023-04-21T04:34:27.080Z,100.00
2023-04-21T04:34:58.834Z,100.00
2023-04-21T04:35:30.373Z,100.00
2023-04-21T04:36:01.860Z,100.00
2023-04-21T04:36:33.694Z,100.00
2023-04-21T04:37:06.713Z,100.00
2023-04-21T04:37:39.035Z,100.00
2023-04-21T04:38:11.629Z,100.00
2023-04-21T04:38:43.090Z,100.00
2023-04-21T04:39:16.395Z,100.00
2023-04-21T04:39:48.219Z,100.00
2023-04-21T04:40:20.620Z,100.00
2023-04-21T04:40:55.629Z,100.00
2023-04-21T04:41:30.424Z,100.00
2023-04-21T04:42:03.589Z,100.00
2023-04-21T04:42:36.641Z,100.00
2023-04-21T04:43:10.552Z,100.00
2023-04-21T04:43:42.798Z,100.00
2023-04-21T04:44:16.268Z,100.00
2023-04-21T04:44:48.089Z,100.00
2023-04-21T04:45:21.298Z,100.00
2023-04-21T04:45:53.330Z,100.00
2023-04-21T04:46:24.863Z,100.00
2023-04-21T04:46:56.802Z,100.00
2023-04-21T04:47:28.936Z,100.00
2023-04-21T04:48:00.581Z,100.00
2023-04-21T04:48:32.157Z,100.00
2023-04-21T04:49:03.590Z,100.00
2023-04-21T04:49:35.245Z,100.00
2023-04-21T04:50:07.403Z,100.00
2023-04-21T04:50:38.959Z,100.00
2023-04-21T04:51:10.483Z,100.00
2023-04-21T04:51:42.028Z,100.00
2023-04-21T04:52:13.416Z,100.00
2023-04-21T04:52:47.009Z,100.00
2023-04-21T04:53:18.444Z,100.00
2023-04-21T04:53:49.998Z,100.00
2023-04-21T04:54:21.748Z,100.00
2023-04-21T04:54:53.520Z,100.00
2023-04-21T04:55:25.980Z,100.00
2023-04-21T04:55:59.151Z,100.00
2023-04-21T04:56:30.799Z,100.00
2023-04-21T04:57:02.428Z,100.00
2023-04-21T04:57:33.824Z,100.00
2023-04-21T04:58:05.251Z,100.00
2023-04-21T04:58:36.649Z,100.00
2023-04-21T04:59:08.436Z,100.00
2023-04-21T04:59:39.864Z,100.00
2023-04-21T05:00:11.956Z,100.00
2023-04-21T05:00:43.422Z,100.00
2023-04-21T05:01:18.304Z,100.00
2023-04-21T05:01:50.133Z,100.00
2023-04-21T05:02:23.931Z,100.00
2023-04-21T05:02:56.085Z,100.00
2023-04-21T05:03:27.635Z,100.00
2023-04-21T05:03:59.330Z,100.00
2023-04-21T05:04:30.856Z,100.00
2023-04-21T05:05:02.831Z,100.00
2023-04-21T05:05:34.578Z,100.00
2023-04-21T05:06:06.613Z,100.00
2023-04-21T05:06:38.018Z,100.00
2023-04-21T05:07:09.529Z,100.00
2023-04-21T05:07:41.020Z,100.00
2023-04-21T05:08:12.563Z,100.00
2023-04-21T05:08:44.066Z,100.00
2023-04-21T05:09:16.403Z,100.00
2023-04-21T05:09:47.856Z,100.00
2023-04-21T05:10:19.359Z,100.00
2023-04-21T05:10:50.736Z,100.00
2023-04-21T05:11:23.269Z,100.00
2023-04-21T05:11:54.665Z,100.00
2023-04-21T05:12:26.029Z,100.00
2023-04-21T05:12:57.388Z,100.00
2023-04-21T05:13:28.996Z,100.00
2023-04-21T05:14:00.419Z,100.00
2023-04-21T05:14:31.836Z,100.00
2023-04-21T05:15:03.480Z,100.00
2023-04-21T05:15:34.856Z,100.00
2023-04-21T05:16:07.767Z,100.00
2023-04-21T05:16:39.434Z,100.00
2023-04-21T05:17:10.853Z,100.00
2023-04-21T05:17:42.348Z,100.00
2023-04-21T05:18:13.942Z,100.00
2023-04-21T05:18:45.658Z,100.00
2023-04-21T05:19:18.750Z,100.00
2023-04-21T05:19:50.398Z,100.00
2023-04-21T05:20:22.851Z,100.00
2023-04-21T05:20:54.320Z,100.00
2023-04-21T05:21:29.255Z,100.00
2023-04-21T05:22:03.334Z,100.00
2023-04-21T05:22:38.336Z,100.00
2023-04-21T05:23:09.743Z,100.00
2023-04-21T05:23:41.136Z,100.00
2023-04-21T05:24:12.494Z,100.00
2023-04-21T05:24:44.226Z,100.00
2023-04-21T05:25:15.984Z,100.00
2023-04-21T05:25:47.939Z,100.00
2023-04-21T05:26:19.406Z,100.00
2023-04-21T05:26:50.789Z,100.00
2023-04-21T05:27:22.232Z,100.00
2023-04-21T05:27:53.664Z,100.00
2023-04-21T05:28:25.119Z,100.00
2023-04-21T05:28:57.109Z,100.00
2023-04-21T05:29:29.023Z,100.00
2023-04-21T05:30:01.137Z,100.00
2023-04-21T05:30:32.520Z,100.00
2023-04-21T05:31:04.320Z,100.00
2023-04-21T05:31:36.036Z,100.00
2023-04-21T05:32:07.539Z,100.00
2023-04-21T05:32:39.256Z,100.00
2023-04-21T05:33:10.816Z,100.00
2023-04-21T05:33:42.380Z,100.00
2023-04-21T05:34:13.786Z,100.00
2023-04-21T05:34:45.231Z,100.00
2023-04-21T05:35:16.802Z,100.00
2023-04-21T05:35:48.212Z,100.00
2023-04-21T05:36:20.440Z,100.00
2023-04-21T05:36:52.314Z,100.00
2023-04-21T05:37:23.937Z,100.00
2023-04-21T05:37:55.321Z,100.00
2023-04-21T05:38:27.458Z,100.00
2023-04-21T05:38:59.255Z,100.00
2023-04-21T05:39:30.879Z,100.00
2023-04-21T05:40:02.314Z,100.00
2023-04-21T05:40:33.765Z,100.00
2023-04-21T05:41:05.719Z,100.00
2023-04-21T05:41:37.125Z,100.00
2023-04-21T05:42:11.341Z,100.00
2023-04-21T05:42:42.817Z,100.00
2023-04-21T05:43:14.224Z,100.00
2023-04-21T05:43:47.694Z,100.00
2023-04-21T05:44:19.438Z,100.00
2023-04-21T05:44:51.160Z,100.00
2023-04-21T05:45:22.996Z,100.00
2023-04-21T05:45:54.761Z,100.00
2023-04-21T05:46:26.466Z,100.00
2023-04-21T05:46:57.929Z,100.00
2023-04-21T05:47:29.560Z,100.00
2023-04-21T05:48:01.059Z,100.00
2023-04-21T05:48:32.489Z,100.00
2023-04-21T05:49:03.922Z,100.00
2023-04-21T05:49:35.409Z,100.00
2023-04-21T05:50:07.791Z,100.00
2023-04-21T05:50:39.235Z,100.00
2023-04-21T05:51:18.120Z,100.00
2023-04-21T05:51:49.552Z,100.00
2023-04-21T05:52:23.898Z,100.00
2023-04-21T05:52:55.307Z,100.00
2023-04-21T05:53:28.820Z,100.00
2023-04-21T05:54:00.407Z,100.00
2023-04-21T05:54:32.969Z,100.00
2023-04-21T05:55:05.103Z,100.00
2023-04-21T05:55:37.541Z,100.00
2023-04-21T05:56:09.933Z,100.00
2023-04-21T05:56:41.573Z,100.00
2023-04-21T05:57:13.138Z,100.00
2023-04-21T05:57:44.527Z,100.00
2023-04-21T05:58:16.145Z,100.00
2023-04-21T05:58:47.573Z,100.00
2023-04-21T05:59:19.028Z,100.00
2023-04-21T05:59:50.433Z,100.00
2023-04-21T06:00:21.917Z,100.00
2023-04-21T06:00:53.362Z,100.00
2023-04-21T06:01:24.797Z,100.00
2023-04-21T06:01:56.177Z,100.00
2023-04-21T06:02:27.658Z,100.00
2023-04-21T06:02:59.304Z,100.00
2023-04-21T06:03:32.111Z,100.00
2023-04-21T06:04:04.282Z,100.00
2023-04-21T06:04:36.351Z,100.00
2023-04-21T06:05:08.135Z,100.00
2023-04-21T06:05:39.797Z,100.00
2023-04-21T06:06:11.779Z,100.00
2023-04-21T06:06:44.286Z,100.00
2023-04-21T06:07:18.757Z,100.00
2023-04-21T06:07:50.384Z,100.00
2023-04-21T06:08:22.884Z,100.00
2023-04-21T06:08:54.381Z,100.00
2023-04-21T06:09:25.768Z,100.00
2023-04-21T06:09:57.929Z,100.00
2023-04-21T06:10:30.960Z,100.00
2023-04-21T06:11:02.477Z,100.00
2023-04-21T06:11:33.926Z,100.00
2023-04-21T06:12:06.242Z,100.00
2023-04-21T06:12:38.840Z,100.00
2023-04-21T06:13:10.258Z,100.00
2023-04-21T06:14:00.268Z,100.00
2023-04-21T06:14:32.836Z,100.00
2023-04-21T06:15:04.846Z,100.00
2023-04-21T06:15:36.277Z,100.00
2023-04-21T06:16:07.865Z,100.00
2023-04-21T06:16:39.526Z,100.00
2023-04-21T06:17:11.191Z,100.00
2023-04-21T06:17:42.636Z,100.00
2023-04-21T06:18:14.113Z,100.00
2023-04-21T06:18:45.555Z,100.00
2023-04-21T06:19:16.956Z,100.00
2023-04-21T06:19:53.236Z,100.00
2023-04-21T06:20:24.681Z,100.00
2023-04-21T06:20:57.041Z,100.00
2023-04-21T06:21:28.579Z,100.00
2023-04-21T06:21:59.927Z,100.00
2023-04-21T06:22:32.926Z,100.00
2023-04-21T06:23:04.306Z,100.00
2023-04-21T06:23:35.654Z,100.00
2023-04-21T06:24:07.355Z,100.00
2023-04-21T06:24:38.788Z,100.00
2023-04-21T06:25:10.228Z,100.00
2023-04-21T06:25:41.575Z,100.00
2023-04-21T06:26:13.915Z,100.00
2023-04-21T06:26:45.376Z,100.00
2023-04-21T06:27:17.275Z,100.00
2023-04-21T06:27:49.028Z,100.00
2023-04-21T06:28:20.726Z,100.00
2023-04-21T06:28:52.149Z,100.00
2023-04-21T06:29:23.548Z,100.00
2023-04-21T06:29:56.114Z,100.00
2023-04-21T06:30:27.860Z,100.00
2023-04-21T06:31:01.050Z,100.00
2023-04-21T06:31:32.783Z,100.00
2023-04-21T06:32:04.342Z,100.00
2023-04-21T06:32:36.109Z,100.00
2023-04-21T06:33:07.700Z,100.00
2023-04-21T06:33:39.157Z,100.00
2023-04-21T06:34:10.644Z,100.00
2023-04-21T06:34:42.202Z,100.00
2023-04-21T06:35:14.972Z,100.00
2023-04-21T06:35:46.379Z,100.00
2023-04-21T06:36:18.202Z,100.00
2023-04-21T06:36:49.708Z,100.00
2023-04-21T06:37:21.093Z,100.00
2023-04-21T06:37:52.508Z,100.00
2023-04-21T06:38:24.053Z,100.00
2023-04-21T06:38:56.829Z,100.00
2023-04-21T06:39:28.646Z,100.00
2023-04-21T06:40:00.144Z,100.00
2023-04-21T06:40:31.647Z,100.00
2023-04-21T06:41:04.592Z,100.00
2023-04-21T06:41:36.189Z,100.00
2023-04-21T06:42:07.600Z,100.00
2023-04-21T06:42:38.975Z,100.00
2023-04-21T06:43:10.520Z,100.00
2023-04-21T06:43:41.923Z,100.00
2023-04-21T06:44:14.090Z,100.00
2023-04-21T06:44:45.717Z,100.00
2023-04-21T06:45:17.179Z,100.00
2023-04-21T06:45:48.689Z,100.00
2023-04-21T06:46:20.306Z,100.00
2023-04-21T06:46:51.821Z,100.00
2023-04-21T06:47:23.499Z,100.00
2023-04-21T06:47:55.094Z,100.00
2023-04-21T06:48:26.618Z,100.00
2023-04-21T06:48:57.976Z,100.00